Time;durP1;ratioP1;P1;durP2;ratioP2;P2;SDS_P1;SDS_P2;PMS_P1;PMS_P2;Temp;Humidity;BMP_temperature;BMP_pressure;BME280_temperature;BME280_humidity;BME280_pressure;Samples;Min_cycle;Max_cycle;Signal;HPM_P1;HPM_P2
2023/09/20 00:01:08;;;;;;;3.42;1.58;;;;;;;;;;4938063;29;20931;-83
2023/09/20 00:03:34;;;;;;;3.97;1.85;;;;;;;;;;4927065;29;20039;-88
2023/09/20 00:06:07;;;;;;;4.72;2.10;;;;;;;;;;4918221;29;20482;-83
2023/09/20 00:08:35;;;;;;;3.83;1.92;;;;;;;;;;4919990;29;20028;-82
2023/09/20 00:11:01;;;;;;;6.68;2.03;;;;;;;;;;4924819;29;20038;-85
2023/09/20 00:13:27;;;;;;;7.13;2.13;;;;;;;;;;4941507;29;20024;-86
2023/09/20 00:15:55;;;;;;;3.33;1.98;;;;;;;;;;4933105;29;20036;-86
2023/09/20 00:18:25;;;;;;;5.03;2.13;;;17.30;99.90;;;;;;4948013;23;20520;-83
2023/09/20 00:20:51;;;;;;;3.85;1.88;;;;;;;;;;4967277;28;20023;-84
2023/09/20 00:23:21;;;;;;;4.30;1.83;;;;;;;;;;4956715;28;20051;-82
2023/09/20 00:25:49;;;;;;;7.15;2.63;;;17.10;99.90;;;;;;4956554;28;20031;-81
2023/09/20 00:28:17;;;;;;;3.15;1.73;;;17.10;99.90;;;;;;4954332;28;20360;-78
2023/09/20 00:30:45;;;;;;;5.03;1.83;;;;;;;;;;4935709;29;20044;-82
2023/09/20 00:33:11;;;;;;;3.17;1.75;;;;;;;;;;4951928;28;20091;-83
2023/09/20 00:35:40;;;;;;;3.47;1.65;;;17.10;99.90;;;;;;4934106;29;20063;-82
2023/09/20 00:38:07;;;;;;;4.35;2.00;;;;;;;;;;4942122;28;20047;-83
2023/09/20 00:40:35;;;;;;;3.75;1.50;;;17.10;99.90;;;;;;4946461;28;20069;-84
2023/09/20 00:43:06;;;;;;;3.97;1.40;;;;;;;;;;4946859;28;20036;-83
2023/09/20 00:45:33;;;;;;;5.95;2.15;;;;;;;;;;4935769;29;20059;-85
2023/09/20 00:47:59;;;;;;;4.05;2.00;;;17.10;99.90;;;;;;4938495;29;20046;-83
2023/09/20 00:50:31;;;;;;;3.58;1.63;;;17.00;99.90;;;;;;4933484;29;20950;-83
2023/09/20 00:52:58;;;;;;;5.18;1.95;;;;;;;;;;4952546;28;20024;-80
2023/09/20 00:55:28;;;;;;;4.30;1.88;;;17.10;99.90;;;;;;4937341;29;20043;-81
2023/09/20 00:57:59;;;;;;;2.95;1.70;;;17.10;99.90;;;;;;4937014;29;20420;-82
2023/09/20 01:00:28;;;;;;;4.38;2.05;;;;;;;;;;4941963;29;20449;-82
2023/09/20 01:02:57;;;;;;;3.25;1.83;;;17.10;99.90;;;;;;4952969;28;20503;-82
2023/09/20 01:05:25;;;;;;;3.70;1.40;;;17.10;99.90;;;;;;4932649;29;20036;-81
2023/09/20 01:07:56;;;;;;;6.15;2.65;;;17.10;99.90;;;;;;4932502;29;20032;-82
2023/09/20 01:10:23;;;;;;;3.10;1.90;;;17.10;99.90;;;;;;4946283;29;20230;-84
2023/09/20 01:12:59;;;;;;;4.57;2.05;;;17.10;99.90;;;;;;4936672;29;20043;-85
2023/09/20 01:15:27;;;;;;;3.03;1.60;;;17.00;99.90;;;;;;4929192;29;20028;-83
2023/09/20 01:17:57;;;;;;;3.97;1.83;;;17.00;99.90;;;;;;4941627;29;20043;-83
2023/09/20 01:20:24;;;;;;;;;;;17.00;99.90;;;;;;4952860;29;20031;-84
2023/09/20 01:22:51;;;;;;;5.28;2.15;;;17.00;99.90;;;;;;4950473;28;19919;-84
2023/09/20 01:25:25;;;;;;;3.83;1.70;;;17.00;99.90;;;;;;4941723;28;20035;-82
2023/09/20 01:27:55;;;;;;;5.47;1.88;;;17.00;99.90;;;;;;4957229;28;20044;-84
2023/09/20 01:30:21;;;;;;;3.78;1.80;;;;;;;;;;4947073;28;20034;-83
2023/09/20 01:32:47;;;;;;;3.60;1.67;;;;;;;;;;4934956;29;20044;-84
2023/09/20 01:35:16;;;;;;;6.25;1.85;;;17.00;99.90;;;;;;4937917;29;20066;-81
2023/09/20 01:37:43;;;;;;;4.28;2.20;;;;;;;;;;4936366;29;20493;-84
2023/09/20 01:40:18;;;;;;;3.60;1.50;;;16.90;99.90;;;;;;4935927;29;20048;-84
2023/09/20 01:42:48;;;;;;;4.90;1.83;;;16.90;99.90;;;;;;4949567;28;20043;-82
2023/09/20 01:45:18;;;;;;;4.35;1.63;;;16.90;99.90;;;;;;4950095;28;20052;-83
2023/09/20 01:47:45;;;;;;;5.95;2.05;;;16.80;99.90;;;;;;4932719;29;20033;-83
2023/09/20 01:50:31;;;;;;;4.97;1.70;;;16.80;99.90;;;;;;4936743;29;20024;-84
2023/09/20 01:52:58;;;;;;;3.45;1.70;;;16.80;99.90;;;;;;4928836;29;20070;-83
2023/09/20 01:55:27;;;;;;;4.68;2.10;;;16.80;99.90;;;;;;4954936;29;20067;-83
2023/09/20 01:57:55;;;;;;;4.55;1.85;;;16.80;99.90;;;;;;4947635;28;20471;-83
2023/09/20 02:00:33;;;;;;;4.18;1.73;;;16.70;99.90;;;;;;4954411;28;20312;-84
2023/09/20 02:03:00;;;;;;;5.97;2.20;;;16.70;99.90;;;;;;4950253;28;20115;-84
2023/09/20 02:05:27;;;;;;;3.40;1.50;;;16.70;99.90;;;;;;4936694;29;20381;-83
2023/09/20 02:07:56;;;;;;;5.85;1.90;;;16.70;99.90;;;;;;4936568;29;20032;-82
2023/09/20 02:10:22;;;;;;;4.13;1.63;;;16.60;99.90;;;;;;4955492;28;20027;-84
2023/09/20 02:12:51;;;;;;;5.63;1.77;;;16.60;99.90;;;;;;4958161;28;20050;-83
2023/09/20 02:15:17;;;;;;;5.03;1.55;;;16.60;99.90;;;;;;4954224;28;20027;-83
2023/09/20 02:17:44;;;;;;;3.08;1.50;;;16.50;99.90;;;;;;4952900;28;20067;-81
2023/09/20 02:20:19;;;;;;;4.45;1.80;;;16.50;99.90;;;;;;4951160;28;20099;-81
2023/09/20 02:22:48;;;;;;;4.20;2.00;;;16.40;99.90;;;;;;4952181;29;20032;-82
2023/09/20 02:25:20;;;;;;;5.45;1.92;;;16.40;99.90;;;;;;4931542;29;20699;-83
2023/09/20 02:27:46;;;;;;;3.63;1.75;;;;;;;;;;4935918;29;20030;-83
2023/09/20 02:30:15;;;;;;;3.03;1.55;;;16.30;99.90;;;;;;4943491;29;20035;-81
2023/09/20 02:32:42;;;;;;;3.85;1.92;;;16.30;99.90;;;;;;4934837;29;20499;-83
2023/09/20 02:35:08;;;;;;;4.70;1.70;;;16.30;99.90;;;;;;4950171;28;20491;-83
2023/09/20 02:37:34;;;;;;;6.40;1.63;;;;;;;;;;4950998;28;20106;-81
2023/09/20 02:40:01;;;;;;;3.88;1.60;;;;;;;;;;4934841;29;20571;-82
2023/09/20 02:42:27;;;;;;;2.90;1.80;;;;;;;;;;4938924;29;20656;-82
2023/09/20 02:44:53;;;;;;;3.05;1.52;;;16.30;99.90;;;;;;4956038;28;20540;-84
2023/09/20 02:47:20;;;;;;;3.40;1.73;;;;;;;;;;4951885;28;20118;-84
2023/09/20 02:49:48;;;;;;;2.90;1.63;;;;;;;;;;4934396;29;20024;-82
2023/09/20 02:52:16;;;;;;;3.28;1.50;;;16.20;99.90;;;;;;4949731;29;20024;-82
2023/09/20 02:54:43;;;;;;;3.90;1.70;;;;;;;;;;4945257;28;20119;-83
2023/09/20 02:57:10;;;;;;;3.45;1.60;;;;;;;;;;4928438;29;20028;-80
2023/09/20 02:59:38;;;;;;;3.13;1.40;;;;;;;;;;4944671;29;20039;-82
2023/09/20 03:02:05;;;;;;;2.67;1.42;;;;;;;;;;4937499;29;20032;-85
2023/09/20 03:04:31;;;;;;;4.85;1.90;;;;;;;;;;4936086;29;20059;-80
2023/09/20 03:06:57;;;;;;;2.65;1.67;;;;;;;;;;4932982;29;20032;-85
2023/09/20 03:09:26;;;;;;;5.00;1.80;;;;;;;;;;4934771;29;20055;-82
2023/09/20 03:11:54;;;;;;;2.70;1.45;;;;;;;;;;4934853;29;20122;-82
2023/09/20 03:14:20;;;;;;;3.90;1.80;;;16.00;99.90;;;;;;4948760;29;20028;-85
2023/09/20 03:16:45;;;;;;;6.20;1.73;;;16.00;99.90;;;;;;4947017;28;20107;-81
2023/09/20 03:19:14;;;;;;;3.60;1.77;;;;;;;;;;4953801;28;20501;-83
2023/09/20 03:21:41;;;;;;;3.13;1.38;;;;;;;;;;4924480;29;20028;-84
2023/09/20 03:24:08;;;;;;;3.38;1.60;;;16.00;99.90;;;;;;4930751;29;20036;-82
2023/09/20 03:26:35;;;;;;;4.55;1.70;;;;;;;;;;4953624;28;20035;-82
2023/09/20 03:29:04;;;;;;;4.10;1.70;;;;;;;;;;4944053;28;20020;-82
2023/09/20 03:31:34;;;;;;;4.18;1.70;;;15.90;99.90;;;;;;4939149;29;20042;-86
2023/09/20 03:34:01;;;;;;;4.55;1.88;;;;;;;;;;4954061;29;20118;-84
2023/09/20 03:36:27;;;;;;;3.38;1.55;;;;;;;;;;4941765;29;20545;-85
2023/09/20 03:38:57;;;;;;;4.95;1.60;;;;;;;;;;4936950;29;20031;-82
2023/09/20 03:41:24;;;;;;;3.58;1.60;;;;;;;;;;4948680;29;20043;-85
2023/09/20 03:43:50;;;;;;;6.43;1.80;;;;;;;;;;4935141;29;20583;-84
2023/09/20 03:46:16;;;;;;;4.18;1.77;;;;;;;;;;4947629;29;20540;-84
2023/09/20 03:48:43;;;;;;;3.50;1.50;;;15.90;99.90;;;;;;4943845;29;20166;-83
2023/09/20 03:51:15;;;;;;;4.80;1.80;;;15.90;99.90;;;;;;4956558;29;20024;-85
2023/09/20 03:53:44;;;;;;;4.60;1.40;;;15.80;99.90;;;;;;4941871;29;20027;-83
2023/09/20 03:56:14;;;;;;;2.83;1.70;;;;;;;;;;4956616;28;20039;-83
2023/09/20 03:58:41;;;;;;;5.13;1.92;;;;;;;;;;4939381;29;20044;-81
2023/09/20 04:01:08;;;;;;;3.88;1.83;;;;;;;;;;4937232;29;20126;-80
2023/09/20 04:03:35;;;;;;;4.63;2.33;;;;;;;;;;4955003;29;20054;-80
2023/09/20 04:06:01;;;;;;;5.88;2.30;;;15.90;99.90;;;;;;4956806;28;20038;-84
2023/09/20 04:08:27;;;;;;;5.28;2.33;;;;;;;;;;4949414;29;20331;-79
2023/09/20 04:10:53;;;;;;;4.82;2.10;;;;;;;;;;4939497;29;20027;-83
2023/09/20 04:13:19;;;;;;;4.93;2.20;;;15.90;99.90;;;;;;4922862;29;20484;-83
2023/09/20 04:15:45;;;;;;;4.60;1.75;;;;;;;;;;4956943;29;20058;-83
2023/09/20 04:18:15;;;;;;;5.90;1.90;;;15.80;99.90;;;;;;4947578;29;20035;-83
2023/09/20 04:20:45;;;;;;;4.53;1.70;;;15.80;99.90;;;;;;4956270;29;20126;-83
2023/09/20 04:23:12;;;;;;;4.63;1.80;;;15.70;99.90;;;;;;4947646;29;20028;-82
2023/09/20 04:25:37;;;;;;;6.53;1.90;;;;;;;;;;4956659;29;20461;-83
2023/09/20 04:28:03;;;;;;;6.45;2.25;;;15.60;99.90;;;;;;4944727;29;20055;-82
2023/09/20 04:30:30;;;;;;;5.43;2.08;;;;;;;;;;4938200;29;20055;-82
2023/09/20 04:32:56;;;;;;;4.22;1.63;;;15.70;99.90;;;;;;4940641;29;20039;-82
2023/09/20 04:35:22;;;;;;;6.50;1.92;;;15.60;99.90;;;;;;4941825;29;20027;-81
2023/09/20 04:37:48;;;;;;;4.28;1.73;;;15.60;99.90;;;;;;4953853;29;20023;-83
2023/09/20 04:40:13;;;;;;;3.42;1.98;;;15.60;99.90;;;;;;4949285;28;20023;-83
2023/09/20 04:42:39;;;;;;;3.88;1.75;;;15.50;99.90;;;;;;4946060;29;20039;-82
2023/09/20 04:45:12;;;;;;;4.25;1.83;;;15.60;99.90;;;;;;4952337;28;20606;-82
2023/09/20 04:47:38;;;;;;;3.33;1.80;;;;;;;;;;4955488;28;20480;-81
2023/09/20 04:50:05;;;;;;;4.55;1.98;;;15.50;99.90;;;;;;4937127;29;20496;-78
2023/09/20 04:52:30;;;;;;;6.20;2.20;;;15.60;99.90;;;;;;4946316;29;20028;-83
2023/09/20 04:54:56;;;;;;;5.32;2.13;;;;;;;;;;4948310;28;20028;-84
2023/09/20 04:57:22;;;;;;;4.63;1.95;;;;;;;;;;4953206;28;20043;-82
2023/09/20 04:59:50;;;;;;;4.82;2.53;;;;;;;;;;4939541;29;20024;-84
2023/09/20 05:02:16;;;;;;;5.80;2.17;;;;;;;;;;4933279;29;20044;-83
2023/09/20 05:04:42;;;;;;;6.03;2.45;;;15.80;99.90;;;;;;4933209;29;20364;-82
2023/09/20 05:07:09;;;;;;;5.47;2.00;;;15.90;99.90;;;;;;4940267;29;20039;-79
2023/09/20 05:09:36;;;;;;;4.55;2.10;;;15.90;99.90;;;;;;4937809;29;20319;-82
2023/09/20 05:12:02;;;;;;;5.25;1.83;;;15.90;99.90;;;;;;4928660;29;20024;-82
2023/09/20 05:14:29;;;;;;;3.95;1.92;;;;;;;;;;4952704;28;20032;-84
2023/09/20 05:16:55;;;;;;;3.72;2.10;;;;;;;;;;4936911;29;20095;-82
2023/09/20 05:19:24;;;;;;;4.80;1.75;;;;;;;;;;4952406;28;20043;-84
2023/09/20 05:21:50;;;;;;;4.75;1.95;;;;;;;;;;4937921;29;20503;-85
2023/09/20 05:24:15;;;;;;;9.02;1.90;;;15.90;99.90;;;;;;4935473;29;20024;-85
2023/09/20 05:26:42;;;;;;;5.32;2.15;;;;;;;;;;4935465;29;20063;-83
2023/09/20 05:29:09;;;;;;;3.95;1.83;;;15.90;99.90;;;;;;4935224;29;20030;-83
2023/09/20 05:31:36;;;;;;;5.55;2.20;;;;;;;;;;4947637;28;20030;-82
2023/09/20 05:34:02;;;;;;;4.25;1.50;;;;;;;;;;4952215;28;20036;-84
2023/09/20 05:36:28;;;;;;;4.63;1.75;;;;;;;;;;4951049;28;20095;-83
2023/09/20 05:38:55;;;;;;;3.03;1.50;;;;;;;;;;4930016;29;20486;-83
2023/09/20 05:41:21;;;;;;;3.58;1.63;;;;;;;;;;4921273;29;20032;-85
2023/09/20 05:43:48;;;;;;;3.40;1.55;;;;;;;;;;4930181;29;20062;-83
2023/09/20 05:46:14;;;;;;;5.03;1.80;;;;;;;;;;4945167;28;20466;-82
2023/09/20 05:48:41;;;;;;;3.53;1.80;;;;;;;;;;4928989;29;20039;-83
2023/09/20 05:51:10;;;;;;;7.97;2.47;;;;;;;;;;4927554;29;20115;-81
2023/09/20 05:53:36;;;;;;;4.43;2.03;;;;;;;;;;4930849;29;20030;-82
2023/09/20 05:56:10;;;;;;;6.00;2.00;;;16.40;99.90;;;;;;4946347;28;20079;-84
2023/09/20 05:58:36;;;;;;;3.88;1.85;;;16.30;99.90;;;;;;4928023;29;20043;-80
2023/09/20 06:01:02;;;;;;;5.40;2.20;;;16.40;99.90;;;;;;4925021;29;20394;-82
2023/09/20 06:03:28;;;;;;;4.20;2.10;;;;;;;;;;4933410;29;20036;-83
2023/09/20 06:05:54;;;;;;;6.00;2.03;;;;;;;;;;4944626;28;20031;-82
2023/09/20 06:08:20;;;;;;;5.50;2.15;;;;;;;;;;4929958;29;20028;-81
2023/09/20 06:10:46;;;;;;;5.13;2.22;;;16.50;99.90;;;;;;4930067;29;20034;-82
2023/09/20 06:13:12;;;;;;;3.55;2.00;;;16.50;99.90;;;;;;4934915;29;20027;-84
2023/09/20 06:15:39;;;;;;;4.35;2.15;;;;;;;;;;4950433;28;20062;-83
2023/09/20 06:18:06;;;;;;;8.77;2.63;;;;;;;;;;4948937;28;20664;-85
2023/09/20 06:20:33;;;;;;;4.85;2.13;;;;;;;;;;4934964;29;20504;-82
2023/09/20 06:23:00;;;;;;;4.60;1.98;;;;;;;;;;4933918;29;20127;-85
2023/09/20 06:25:26;;;;;;;4.80;2.10;;;;;;;;;;4935868;29;20028;-84
2023/09/20 06:27:53;;;;;;;7.28;2.00;;;;;;;;;;4947250;28;20035;-83
2023/09/20 06:30:20;;;;;;;6.05;1.80;;;;;;;;;;4935711;29;20043;-82
2023/09/20 06:32:46;;;;;;;5.03;2.15;;;;;;;;;;4934046;29;20055;-84
2023/09/20 06:35:17;;;;;;;4.18;1.80;;;;;;;;;;4933455;29;20100;-85
2023/09/20 06:37:46;;;;;;;4.93;1.95;;;;;;;;;;4935321;29;20035;-84
2023/09/20 06:40:22;;;;;;;3.60;1.85;;;;;;;;;;4937304;29;20028;-84
2023/09/20 06:42:48;;;;;;;4.05;1.88;;;;;;;;;;4931243;29;20108;-85
2023/09/20 06:45:14;;;;;;;5.35;2.03;;;;;;;;;;4922766;29;20035;-83
2023/09/20 06:47:40;;;;;;;4.60;2.17;;;;;;;;;;4937148;29;20036;-85
2023/09/20 06:50:07;;;;;;;3.92;1.88;;;16.80;99.90;;;;;;4934393;29;20040;-85
2023/09/20 06:52:33;;;;;;;5.28;2.47;;;;;;;;;;4951899;28;20036;-83
2023/09/20 06:54:59;;;;;;;5.20;1.80;;;;;;;;;;4953113;28;20036;-86
2023/09/20 06:57:25;;;;;;;8.27;2.13;;;;;;;;;;4937157;29;20066;-86
2023/09/20 06:59:54;;;;;;;6.45;2.10;;;;;;;;;;4952681;28;20095;-85
2023/09/20 07:02:22;;;;;;;5.40;1.80;;;;;;;;;;4940216;29;20031;-84
2023/09/20 07:04:48;;;;;;;4.95;1.80;;;;;;;;;;4942005;29;20119;-85
2023/09/20 07:07:14;;;;;;;7.55;4.13;;;;;;;;;;4936460;29;20374;-85
2023/09/20 07:09:40;;;;;;;7.88;2.10;;;;;;;;;;4954586;28;20075;-82
2023/09/20 07:12:07;;;;;;;4.85;1.88;;;;;;;;;;4939864;29;20031;-83
2023/09/20 07:14:33;;;;;;;4.88;2.20;;;;;;;;;;4936180;29;20042;-84
2023/09/20 07:17:03;;;;;;;4.93;2.20;;;;;;;;;;4952432;29;20023;-86
2023/09/20 07:19:35;;;;;;;4.67;2.70;;;;;;;;;;4938677;29;20047;-85
2023/09/20 07:22:03;;;;;;;6.82;2.22;;;;;;;;;;4942182;29;20031;-85
2023/09/20 07:24:32;;;;;;;5.53;1.85;;;;;;;;;;4940119;29;20032;-85
2023/09/20 07:26:58;;;;;;;3.73;1.90;;;;;;;;;;4959598;28;20020;-85
2023/09/20 07:29:24;;;;;;;5.85;2.35;;;;;;;;;;4937744;29;20034;-86
2023/09/20 07:31:51;;;;;;;5.05;2.30;;;;;;;;;;4933837;29;20392;-84
2023/09/20 07:34:23;;;;;;;5.72;2.45;;;;;;;;;;4935997;29;20039;-88
2023/09/20 07:36:53;;;;;;;3.92;1.90;;;18.20;99.90;;;;;;4939801;29;20031;-83
2023/09/20 07:39:21;;;;;;;4.43;1.90;;;;;;;;;;4933461;29;20046;-85
2023/09/20 07:41:50;;;;;;;5.32;1.60;;;;;;;;;;4934000;29;20834;-83
2023/09/20 07:44:23;;;;;;;4.60;1.80;;;;;;;;;;4938729;29;20127;-84
2023/09/20 07:46:49;;;;;;;4.65;1.63;;;;;;;;;;4939363;29;20031;-86
2023/09/20 07:49:15;;;;;;;2.92;1.70;;;;;;;;;;4933971;29;20031;-84
2023/09/20 07:51:41;;;;;;;4.13;2.13;;;;;;;;;;4936809;29;20544;-84
2023/09/20 07:54:10;;;;;;;4.95;1.70;;;;;;;;;;4947829;28;20040;-83
2023/09/20 07:56:37;;;;;;;5.10;1.83;;;19.40;99.90;;;;;;4938793;29;20400;-85
2023/09/20 07:59:13;;;;;;;3.70;1.92;;;19.60;99.90;;;;;;4929153;29;20024;-86
2023/09/20 08:01:41;;;;;;;3.95;1.73;;;19.60;99.90;;;;;;4952981;28;20031;-85
2023/09/20 08:04:10;;;;;;;7.68;2.00;;;;;;;;;;4958879;28;20043;-82
2023/09/20 08:06:37;;;;;;;2.90;1.27;;;;;;;;;;4935216;29;20035;-82
2023/09/20 08:09:05;;;;;;;2.80;1.38;;;19.80;99.90;;;;;;4932795;29;20564;-80
2023/09/20 08:11:32;;;;;;;4.88;1.60;;;18.10;99.90;;;;;;4942533;29;20030;-79
2023/09/20 08:13:59;;;;;;;6.90;1.95;;;19.80;99.90;;;;;;4934267;29;20035;-81
2023/09/20 08:16:33;;;;;;;4.97;1.80;;;19.90;99.90;;;;;;4953594;28;20051;-81
2023/09/20 08:19:24;;;;;;;4.18;1.50;;;;;;;;;;4935588;29;20036;-79
2023/09/20 08:21:49;;;;;;;3.67;1.80;;;;;;;;;;4937097;29;20040;-82
2023/09/20 09:00:34;;;;;;;2.95;1.50;;;21.00;99.90;;;;;;4948107;29;20043;-84
2023/09/20 09:03:08;;;;;;;4.55;1.65;;;20.90;99.90;;;;;;4943983;29;20500;-80
2023/09/20 09:05:41;;;;;;;4.43;1.63;;;;;;;;;;4926230;29;20039;-86
2023/09/20 09:08:07;;;;;;;5.22;1.27;;;;;;;;;;4934434;29;20063;-82
2023/09/20 09:10:35;;;;;;;3.78;1.80;;;;;;;;;;4944633;28;20043;-86
2023/09/20 09:13:01;;;;;;;7.38;1.73;;;;;;;;;;4931772;29;20034;-83
2023/09/20 09:15:32;;;;;;;3.15;1.40;;;20.90;99.90;;;;;;4941835;29;20130;-83
2023/09/20 09:18:01;;;;;;;3.33;1.48;;;;;;;;;;4931991;29;20099;-85
2023/09/20 09:20:29;;;;;;;4.10;1.58;;;;;;;;;;4933907;29;20520;-87
2023/09/20 09:23:02;;;;;;;4.65;1.50;;;;;;;;;;4932308;29;20653;-85
2023/09/20 09:25:30;;;;;;;3.65;1.30;;;;;;;;;;4948380;28;20063;-83
2023/09/20 09:27:56;;;;;;;3.03;1.50;;;;;;;;;;4933080;29;20035;-81
2023/09/20 09:30:23;;;;;;;3.10;1.67;;;;;;;;;;4929031;29;20032;-81
2023/09/20 09:32:50;;;;;;;5.70;1.90;;;;;;;;;;4937661;28;20111;-85
2023/09/20 09:35:18;;;;;;;2.65;1.25;;;;;;;;;;4931132;29;20096;-84
2023/09/20 09:37:44;;;;;;;4.95;1.48;;;;;;;;;;4932839;29;20247;-84
2023/09/20 09:40:12;;;;;;;7.93;1.58;;;;;;;;;;4951425;28;20660;-84
2023/09/20 09:42:40;;;;;;;2.97;1.20;;;;;;;;;;4931132;29;20388;-85
2023/09/20 09:45:07;;;;;;;4.80;1.40;;;;;;;;;;4944248;28;20059;-84
2023/09/20 09:47:35;;;;;;;4.07;1.58;;;;;;;;;;4942565;29;20537;-83
2023/09/20 09:50:04;;;;;;;2.05;1.40;;;21.50;99.90;;;;;;4932246;29;20396;-86
2023/09/20 09:52:36;;;;;;;6.05;1.70;;;21.60;99.90;;;;;;4942974;29;20019;-85
2023/09/20 09:55:02;;;;;;;2.05;1.10;;;;;;;;;;4950040;28;20723;-86
2023/09/20 09:57:28;;;;;;;3.08;1.48;;;;;;;;;;4933620;29;20096;-84
2023/09/20 09:59:55;;;;;;;4.35;1.67;;;;;;;;;;4947861;28;21381;-86
2023/09/20 10:02:22;;;;;;;5.50;1.25;;;22.70;99.90;;;;;;4927218;29;20091;-83
2023/09/20 10:04:53;;;;;;;2.92;1.25;;;22.70;99.90;;;;;;4946453;29;20113;-86
2023/09/20 10:07:22;;;;;;;2.88;1.40;;;22.70;99.90;;;;;;4931385;29;20024;-83
2023/09/20 10:09:51;;;;;;;2.65;1.30;;;22.90;99.90;;;;;;4937077;29;20043;-84
2023/09/20 10:12:19;;;;;;;3.90;1.40;;;23.20;99.90;;;;;;4930724;29;20155;-85
2023/09/20 10:14:45;;;;;;;3.13;1.52;;;;;;;;;;4950391;28;20032;-85
2023/09/20 10:17:17;;;;;;;6.40;1.35;;;23.60;99.90;;;;;;4934452;29;20102;-83
2023/09/20 10:19:45;;;;;;;3.35;1.30;;;23.90;99.90;;;;;;4949714;28;20040;-84
2023/09/20 10:22:13;;;;;;;4.75;2.10;;;;;;;;;;4956432;28;20051;-82
2023/09/20 10:25:00;;;;;;;7.47;1.52;;;24.20;99.90;;;;;;4933040;29;20028;-84
2023/09/20 10:27:31;;;;;;;3.33;1.45;;;24.50;99.90;;;;;;4949636;29;20050;-81
2023/09/20 10:30:01;;;;;;;3.55;1.30;;;;;;;;;;4955820;28;20120;-84
2023/09/20 10:32:34;;;;;;;;;;;25.00;99.90;;;;;;4933670;29;20023;-83
2023/09/20 10:35:19;;;;;;;3.70;1.42;;;25.20;99.90;;;;;;4950967;28;19913;-83
2023/09/20 10:38:20;;;;;;;3.67;1.20;;;25.20;99.90;;;;;;4937734;29;20063;-83
2023/09/20 10:40:55;;;;;;;3.90;1.30;;;;;;;;;;4937446;29;20031;-82
2023/09/20 10:43:41;;;;;;;3.35;1.70;;;25.00;99.90;;;;;;4938168;29;20028;-83
2023/09/20 10:46:14;;;;;;;3.20;1.25;;;24.90;99.90;;;;;;4950290;28;20482;-84
2023/09/20 10:48:43;;;;;;;3.53;1.30;;;24.90;99.90;;;;;;4957369;28;20031;-83
2023/09/20 10:51:10;;;;;;;5.20;1.42;;;24.90;99.90;;;;;;4956724;28;20027;-83
2023/09/20 10:53:44;;;;;;;4.93;1.48;;;24.80;99.90;;;;;;4950354;28;20163;-83
2023/09/20 10:56:49;;;;;;;3.72;1.52;;;24.70;99.90;;;;;;4937354;29;20031;-84
2023/09/20 10:59:16;;;;;;;2.42;1.17;;;;;;;;;;4940373;29;20024;-84
2023/09/20 11:01:56;;;;;;;4.43;1.50;;;24.40;99.90;;;;;;4937256;29;20028;-83
2023/09/20 11:04:24;;;;;;;3.88;1.33;;;24.30;99.90;;;;;;4956708;28;20023;-85
2023/09/20 11:06:55;;;;;;;4.40;1.70;;;24.00;99.90;;;;;;4952518;28;20034;-84
2023/09/20 11:09:25;;;;;;;4.22;1.60;;;23.80;99.90;;;;;;4955958;28;20468;-86
2023/09/20 11:11:51;;;;;;;5.55;1.55;;;;;;;;;;4942739;29;20028;-83
2023/09/20 11:14:19;;;;;;;4.82;1.50;;;;;;;;;;4955252;28;20028;-84
2023/09/20 11:16:45;;;;;;;3.72;1.73;;;;;;;;;;4940572;29;20027;-85
2023/09/20 11:19:12;;;;;;;5.03;1.40;;;;;;;;;;4936077;29;20078;-83
2023/09/20 11:21:40;;;;;;;4.90;1.40;;;23.80;99.90;;;;;;4940104;29;20115;-85
2023/09/20 11:24:11;;;;;;;4.90;1.50;;;23.90;99.90;;;;;;4939733;29;20027;-83
2023/09/20 11:26:40;;;;;;;4.95;1.45;;;;;;;;;;4938601;28;20035;-83
2023/09/20 11:29:09;;;;;;;5.25;1.45;;;24.20;99.90;;;;;;4935917;29;20543;-83
2023/09/20 11:31:35;;;;;;;4.05;1.23;;;;;;;;;;4943358;29;20030;-84
2023/09/20 11:34:03;;;;;;;6.20;1.92;;;24.50;99.90;;;;;;4938180;29;20036;-83
2023/09/20 11:36:29;;;;;;;3.45;1.50;;;;;;;;;;4938117;29;20110;-83
2023/09/20 11:38:55;;;;;;;4.72;1.58;;;24.50;99.90;;;;;;4935367;29;20381;-83
2023/09/20 11:41:23;;;;;;;3.50;1.98;;;24.60;99.90;;;;;;4939273;29;20034;-81
2023/09/20 11:43:56;;;;;;;5.40;1.63;;;24.70;99.90;;;;;;4950305;28;20042;-82
2023/09/20 11:46:22;;;;;;;3.00;1.33;;;;;;;;;;4934683;29;20037;-82
2023/09/20 11:48:51;;;;;;;3.30;1.92;;;24.90;99.60;;;;;;4955261;28;20038;-82
2023/09/20 11:51:17;;;;;;;2.57;1.40;;;24.90;99.30;;;;;;4927431;29;20504;-84
2023/09/20 11:53:44;;;;;;;2.88;1.35;;;24.70;99.20;;;;;;4942816;29;20066;-83
2023/09/20 11:56:10;;;;;;;4.47;1.50;;;24.70;99.20;;;;;;4945252;29;20040;-83
2023/09/20 11:58:37;;;;;;;2.70;1.38;;;;;;;;;;4955042;28;20109;-85
2023/09/20 12:01:06;;;;;;;3.20;1.67;;;24.90;98.80;;;;;;4938353;29;20036;-85
2023/09/20 12:03:33;;;;;;;4.00;1.30;;;24.80;98.80;;;;;;4951471;28;20481;-85
2023/09/20 12:05:59;;;;;;;6.05;2.55;;;24.70;99.10;;;;;;4936367;28;20114;-84
2023/09/20 12:08:32;;;;;;;5.07;1.77;;;24.80;99.30;;;;;;4952461;28;20062;-84
2023/09/20 12:10:58;;;;;;;2.55;1.30;;;;;;;;;;4937299;29;20091;-83
2023/09/20 12:13:24;;;;;;;3.33;1.35;;;;;;;;;;4938805;29;20087;-80
2023/09/20 12:15:52;;;;;;;5.45;2.28;;;;;;;;;;4955790;28;20409;-84
2023/09/20 12:18:19;;;;;;;6.22;1.70;;;;;;;;;;4989709;23;20043;-88
2023/09/20 12:20:45;;;;;;;4.63;1.90;;;;;;;;;;4950476;29;20031;-89
2023/09/20 12:23:14;;;;;;;4.03;1.30;;;;;;;;;;4942092;29;20042;-88
2023/09/20 12:25:40;;;;;;;3.50;1.20;;;;;;;;;;4945605;29;20047;-87
2023/09/20 12:28:08;;;;;;;2.83;1.30;;;;;;;;;;4933583;29;20034;-88
2023/09/20 12:30:36;;;;;;;3.65;1.50;;;;;;;;;;4950057;29;20108;-89
2023/09/20 12:33:02;;;;;;;4.30;1.55;;;;;;;;;;4937659;28;20052;-88
2023/09/20 12:35:30;;;;;;;5.20;1.52;;;;;;;;;;4951914;28;20143;-89
2023/09/20 12:37:57;;;;;;;5.65;1.33;;;;;;;;;;4938631;28;20039;-90
2023/09/20 12:40:24;;;;;;;2.65;1.23;;;;;;;;;;4953241;28;20048;-89
2023/09/20 12:42:50;;;;;;;4.25;1.70;;;;;;;;;;4943980;28;20031;-89
2023/09/20 12:45:16;;;;;;;4.13;1.38;;;;;;;;;;4955314;28;20024;-89
2023/09/20 12:47:42;;;;;;;6.22;1.60;;;;;;;;;;4934047;28;20127;-85
2023/09/20 12:50:12;;;;;;;3.65;1.58;;;;;;;;;;4935945;28;20020;-90
2023/09/20 12:52:39;;;;;;;3.95;1.27;;;;;;;;;;4939090;28;20012;-90
2023/09/20 12:55:05;;;;;;;4.93;2.10;;;;;;;;;;4935515;28;20035;-89
2023/09/20 12:57:31;;;;;;;5.68;1.70;;;;;;;;;;4941264;28;20612;-91
2023/09/20 13:00:00;;;;;;;2.63;1.50;;;;;;;;;;4954181;28;20023;-90
2023/09/20 13:02:27;;;;;;;5.38;1.63;;;;;;;;;;4937955;28;20028;-90
2023/09/20 13:04:55;;;;;;;2.97;1.60;;;;;;;;;;4934359;28;20056;-88
2023/09/20 13:07:22;;;;;;;5.47;1.88;;;;;;;;;;4953889;28;20028;-89
2023/09/20 13:09:48;;;;;;;3.20;1.80;;;;;;;;;;4937917;28;20012;-91
2023/09/20 13:12:15;;;;;;;4.00;1.67;;;;;;;;;;4943196;28;20104;-90
2023/09/20 13:14:42;;;;;;;2.15;1.13;;;;;;;;;;4939589;28;20018;-89
2023/09/20 13:17:09;;;;;;;5.78;1.63;;;;;;;;;;4930075;28;20029;-89
2023/09/20 13:19:35;;;;;;;3.33;1.35;;;;;;;;;;4940995;28;20027;-91
2023/09/20 13:22:01;;;;;;;3.53;1.40;;;;;;;;;;4935633;28;20024;-88
2023/09/20 13:24:30;;;;;;;4.18;1.50;;;;;;;;;;4939400;28;20100;-88
2023/09/20 13:26:56;;;;;;;5.65;1.50;;;;;;;;;;4939765;29;20042;-91
2023/09/20 13:29:23;;;;;;;2.67;1.48;;;;;;;;;;4949826;28;20024;-86
2023/09/20 13:31:50;;;;;;;3.17;1.42;;;;;;;;;;4934582;29;20004;-85
2023/09/20 13:34:16;;;;;;;3.90;1.75;;;;;;;;;;4940336;28;20060;-90
2023/09/20 13:36:44;;;;;;;5.45;1.35;;;;;;;;;;4937961;28;20040;-89
2023/09/20 13:39:11;;;;;;;3.05;1.40;;;;;;;;;;4940009;28;20008;-87
2023/09/20 13:41:37;;;;;;;4.22;1.85;;;;;;;;;;4925654;29;20040;-84
2023/09/20 13:44:03;;;;;;;5.53;1.27;;;;;;;;;;4922038;29;20067;-88
2023/09/20 13:46:30;;;;;;;3.17;1.50;;;;;;;;;;4924894;29;20056;-86
2023/09/20 13:48:57;;;;;;;2.53;1.35;;;;;;;;;;4923611;29;20111;-87
2023/09/20 13:51:23;;;;;;;3.63;1.40;;;;;;;;;;4933917;29;20033;-88
2023/09/20 13:53:54;;;;;;;2.83;1.20;;;;;;;;;;4935183;29;20506;-87
2023/09/20 13:56:21;;;;;;;2.28;1.40;;;;;;;;;;4936100;29;20453;-86
2023/09/20 13:58:47;;;;;;;5.00;1.90;;;;;;;;;;4921709;29;20057;-86
2023/09/20 14:01:13;;;;;;;4.00;1.83;;;;;;;;;;4920962;29;20068;-87
2023/09/20 14:03:39;;;;;;;2.75;1.42;;;;;;;;;;4920543;29;20040;-86
2023/09/20 14:06:07;;;;;;;3.08;1.60;;;;;;;;;;4917910;29;20056;-89
2023/09/20 14:08:33;;;;;;;2.28;1.27;;;;;;;;;;4921907;29;20086;-87
2023/09/20 14:10:59;;;;;;;2.63;1.35;;;;;;;;;;4919632;29;20106;-85
2023/09/20 14:13:26;;;;;;;3.30;1.38;;;;;;;;;;4919092;29;20088;-87
2023/09/20 14:15:56;;;;;;;2.10;1.48;;;;;;;;;;4916715;29;20064;-87
2023/09/20 14:18:22;;;;;;;4.78;1.38;;;;;;;;;;4923808;29;20043;-86
2023/09/20 14:20:52;;;;;;;2.42;1.20;;;;;;;;;;4929323;29;20024;-87
2023/09/20 14:23:19;;;;;;;2.65;1.20;;;;;;;;;;4922231;29;20042;-88
2023/09/20 14:25:48;;;;;;;6.40;1.60;;;;;;;;;;4921880;29;20068;-85
2023/09/20 14:28:15;;;;;;;2.95;1.20;;;;;;;;;;4922217;29;20024;-88
2023/09/20 14:30:43;;;;;;;2.65;1.45;;;;;;;;;;4920953;29;20041;-89
2023/09/20 14:33:09;;;;;;;2.10;1.30;;;;;;;;;;4918341;29;20168;-86
2023/09/20 14:35:35;;;;;;;5.00;1.30;;;;;;;;;;4917969;29;20024;-87
2023/09/20 14:38:02;;;;;;;5.47;1.23;;;;;;;;;;4916617;29;20063;-87